Time;durP1;ratioP1;P1;durP2;ratioP2;P2;SDS_P1;SDS_P2;PMS_P1;PMS_P2;Temp;Humidity;BMP_temperature;BMP_pressure;BME280_temperature;BME280_humidity;BME280_pressure;Samples;Min_cycle;Max_cycle;Signal;HPM_P1;HPM_P2
2023/02/22 00:00:52;;;;;;;;;;;3.80;99.90;;;;;;4896960;29;19927;-64
2023/02/22 00:03:25;;;;;;;;;;;3.80;99.90;;;;;;4901822;29;19939;-64
2023/02/22 00:05:58;;;;;;;;;;;3.80;99.90;;;;;;4900475;29;19934;-64
2023/02/22 00:08:35;;;;;;;;;;;3.80;99.90;;;;;;4900336;29;19931;-63
2023/02/22 00:11:07;;;;;;;;;;;3.70;99.90;;;;;;4902438;29;19928;-64
2023/02/22 00:13:42;;;;;;;;;;;3.70;99.90;;;;;;4896405;29;19931;-64
2023/02/22 00:16:18;;;;;;;;;;;3.70;99.90;;;;;;4894369;29;19983;-64
2023/02/22 00:18:51;;;;;;;;;;;3.70;99.90;;;;;;4916167;29;20125;-64
2023/02/22 00:21:22;;;;;;;;;;;3.70;99.90;;;;;;4897961;29;19931;-64
2023/02/22 00:23:55;;;;;;;;;;;3.70;99.90;;;;;;4903963;29;19955;-64
2023/02/22 00:26:27;;;;;;;;;;;3.60;99.90;;;;;;4890624;29;20305;-64
2023/02/22 00:28:59;;;;;;;;;;;3.60;99.90;;;;;;4899814;29;19927;-64
2023/02/22 00:31:30;;;;;;;;;;;3.60;99.90;;;;;;4890331;29;20463;-63
2023/02/22 00:34:02;;;;;;;;;;;3.60;99.90;;;;;;4902909;29;19938;-64
2023/02/22 00:36:34;;;;;;;;;;;3.50;99.90;;;;;;4898410;29;19938;-63
2023/02/22 00:39:06;;;;;;;;;;;3.50;99.90;;;;;;4904622;29;20309;-63
2023/02/22 00:41:38;;;;;;;;;;;3.50;99.90;;;;;;4893794;29;19934;-64
2023/02/22 00:44:10;;;;;;;;;;;3.50;99.90;;;;;;4885301;29;20019;-64
2023/02/22 00:46:44;;;;;;;;;;;3.40;99.90;;;;;;4883409;29;19983;-64
2023/02/22 00:49:15;;;;;;;;;;;3.30;99.90;;;;;;4905040;29;20054;-64
2023/02/22 00:51:48;;;;;;;;;;;3.30;99.90;;;;;;4907062;29;19931;-64
2023/02/22 00:54:20;;;;;;;;;;;3.30;99.90;;;;;;4888988;29;19931;-64
2023/02/22 00:56:52;;;;;;;;;;;3.20;99.90;;;;;;4886754;29;19927;-64
2023/02/22 00:59:26;;;;;;;;;;;3.20;99.90;;;;;;4903596;29;20444;-64
2023/02/22 01:01:52;;;;;;;;;;;3.20;99.90;;;;;;4898416;29;20541;-64
2023/02/22 01:04:24;;;;;;;;;;;3.20;99.90;;;;;;4907699;29;19938;-64
2023/02/22 01:06:56;;;;;;;;;;;3.20;99.90;;;;;;4888950;29;19983;-64
2023/02/22 01:09:29;;;;;;;;;;;3.20;99.90;;;;;;4899547;29;20372;-64
2023/02/22 01:12:01;;;;;;;;;;;3.20;99.90;;;;;;4910796;29;19931;-64
2023/02/22 01:14:33;;;;;;;;;;;3.20;99.90;;;;;;4907280;29;19934;-64
2023/02/22 01:17:04;;;;;;;;;;;3.20;99.90;;;;;;4889292;29;19927;-64
2023/02/22 01:19:36;;;;;;;;;;;3.10;99.90;;;;;;4903057;29;19931;-64
2023/02/22 01:22:08;;;;;;;;;;;3.10;99.90;;;;;;4886629;29;19935;-63
2023/02/22 01:24:39;;;;;;;;;;;3.10;99.90;;;;;;4898348;29;19971;-64
2023/02/22 01:27:11;;;;;;;;;;;3.10;99.90;;;;;;4906401;29;19974;-64
2023/02/22 01:29:43;;;;;;;;;;;3.10;99.90;;;;;;4887102;29;19942;-64
2023/02/22 01:32:10;;;;;;;;;;;3.00;99.90;;;;;;4899067;29;19928;-64
2023/02/22 01:34:38;;;;;;;;;;;3.00;99.90;;;;;;4896662;29;19938;-64
2023/02/22 01:37:09;;;;;;;;;;;3.00;99.90;;;;;;4910470;29;20407;-64
2023/02/22 01:39:36;;;;;;;;;;;3.00;99.90;;;;;;4891750;29;19931;-64
2023/02/22 01:42:09;;;;;;;;;;;2.90;99.90;;;;;;4921396;29;19933;-64
2023/02/22 01:44:41;;;;;;;;;;;2.90;99.90;;;;;;4891992;29;19928;-64
2023/02/22 01:47:08;;;;;;;;;;;2.90;99.90;;;;;;4880311;29;19927;-64
2023/02/22 01:49:42;;;;;;;;;;;2.90;99.90;;;;;;4902023;29;19934;-64
2023/02/22 01:52:16;;;;;;;;;;;2.80;99.90;;;;;;4888790;29;19927;-64
2023/02/22 01:54:50;;;;;;;;;;;2.80;99.90;;;;;;4901391;29;19934;-64
2023/02/22 01:57:28;;;;;;;;;;;2.80;99.90;;;;;;4900195;29;19935;-64
2023/02/22 02:00:09;;;;;;;;;;;2.80;99.90;;;;;;4890636;29;19928;-64
2023/02/22 02:02:44;;;;;;;;;;;2.80;99.90;;;;;;4899102;29;19998;-64
2023/02/22 02:05:23;;;;;;;;;;;2.80;99.90;;;;;;4903889;29;19982;-63
2023/02/22 02:07:55;;;;;;;;;;;2.80;99.90;;;;;;4895905;29;19928;-64
2023/02/22 02:10:26;;;;;;;;;;;2.70;99.90;;;;;;4897654;29;20309;-64
2023/02/22 02:12:54;;;;;;;;;;;2.70;99.90;;;;;;4904724;29;20324;-64
2023/02/22 02:15:28;;;;;;;;;;;2.70;99.90;;;;;;4902444;29;20016;-64
2023/02/22 02:18:02;;;;;;;;;;;2.70;99.90;;;;;;4883287;29;19927;-64
2023/02/22 02:20:34;;;;;;;;;;;2.70;99.90;;;;;;4900766;29;19938;-64
2023/02/22 02:23:24;;;;;;;;;;;2.60;99.90;;;;;;4908686;29;20041;-64
2023/02/22 02:26:17;;;;;;;;;;;2.60;99.90;;;;;;4888128;29;20396;-64
2023/02/22 02:28:49;;;;;;;;;;;2.60;99.90;;;;;;4899620;29;20010;-64
2023/02/22 02:31:34;;;;;;;;;;;2.60;99.90;;;;;;4887868;29;19989;-63
2023/02/22 02:34:10;;;;;;;;;;;2.60;99.90;;;;;;4881485;29;19936;-64
2023/02/22 02:36:43;;;;;;;;;;;2.60;99.90;;;;;;4917996;29;19928;-63
2023/02/22 02:39:18;;;;;;;;;;;2.50;99.90;;;;;;4899729;29;19928;-64
2023/02/22 02:41:50;;;;;;;;;;;2.50;99.90;;;;;;4896103;29;19935;-64
2023/02/22 02:44:27;;;;;;;;;;;2.50;99.90;;;;;;4888516;29;19927;-64
2023/02/22 02:47:01;;;;;;;;;;;2.50;99.90;;;;;;4897159;29;19927;-64
2023/02/22 02:49:36;;;;;;;;;;;2.50;99.90;;;;;;4895418;29;19927;-64
2023/02/22 02:52:08;;;;;;;;;;;2.40;99.90;;;;;;4920969;29;19953;-64
2023/02/22 02:54:40;;;;;;;;;;;2.40;99.90;;;;;;4895405;29;19983;-64
2023/02/22 02:57:13;;;;;;;;;;;2.40;99.90;;;;;;4900790;29;19927;-64
2023/02/22 02:59:45;;;;;;;;;;;2.40;99.90;;;;;;4903145;29;19932;-63
2023/02/22 03:02:22;;;;;;;;;;;2.40;99.90;;;;;;4899159;29;19983;-64
2023/02/22 03:05:09;;;;;;;;;;;2.30;99.90;;;;;;4899302;29;19934;-64
2023/02/22 03:07:46;;;;;;;;;;;2.30;99.90;;;;;;4905221;29;19931;-63
2023/02/22 03:10:23;;;;;;;;;;;2.30;99.90;;;;;;4895104;29;19934;-64
2023/02/22 03:13:04;;;;;;;;;;;2.30;99.90;;;;;;4897078;29;19931;-64
2023/02/22 03:15:51;;;;;;;;;;;2.30;99.90;;;;;;4902998;29;20006;-63
2023/02/22 03:18:37;;;;;;;;;;;2.30;99.90;;;;;;4908169;29;19940;-63
2023/02/22 03:21:15;;;;;;;;;;;2.30;99.90;;;;;;4903213;29;20032;-63
2023/02/22 03:23:50;;;;;;;;;;;2.20;99.90;;;;;;4888610;29;19935;-64
2023/02/22 03:26:45;;;;;;;;;;;2.20;99.90;;;;;;4892473;29;19927;-64
2023/02/22 03:29:14;;;;;;;;;;;2.20;99.90;;;;;;4890923;29;20103;-64
2023/02/22 03:31:52;;;;;;;;;;;2.20;99.90;;;;;;4903984;29;19927;-64
2023/02/22 03:34:25;;;;;;;;;;;2.20;99.90;;;;;;4877069;29;19928;-64
2023/02/22 03:37:00;;;;;;;;;;;2.20;99.90;;;;;;4885576;29;19934;-64
2023/02/22 03:39:34;;;;;;;;;;;2.20;99.90;;;;;;4900380;29;20396;-64
2023/02/22 03:42:11;;;;;;;;;;;2.10;99.90;;;;;;4901725;29;20017;-64
2023/02/22 03:44:40;;;;;;;;;;;2.10;99.90;;;;;;4903581;29;20416;-64
2023/02/22 03:47:16;;;;;;;;;;;2.10;99.90;;;;;;4898456;29;19934;-64
2023/02/22 03:49:56;;;;;;;;;;;2.10;99.90;;;;;;4898096;29;19940;-64
2023/02/22 03:52:28;;;;;;;;;;;2.00;99.90;;;;;;4888867;29;19928;-64
2023/02/22 03:54:54;;;;;;;;;;;2.10;99.90;;;;;;4896318;29;20401;-64
2023/02/22 03:57:31;;;;;;;;;;;2.00;99.90;;;;;;4896411;29;19950;-64
2023/02/22 04:00:06;;;;;;;;;;;2.10;99.90;;;;;;4903838;29;19931;-64
2023/02/22 04:02:43;;;;;;;;;;;2.00;99.90;;;;;;4899317;29;19932;-64
2023/02/22 04:05:18;;;;;;;;;;;2.00;99.90;;;;;;4896589;29;20377;-64
2023/02/22 04:07:51;;;;;;;;;;;2.00;99.90;;;;;;4904829;29;19928;-64
2023/02/22 04:10:23;;;;;;;;;;;2.00;99.90;;;;;;4904787;29;19931;-64
2023/02/22 04:12:55;;;;;;;;;;;2.00;99.90;;;;;;4881811;29;19934;-64
2023/02/22 04:15:26;;;;;;;;;;;2.00;99.90;;;;;;4899801;29;20388;-64
2023/02/22 04:18:02;;;;;;;;;;;1.90;99.90;;;;;;4897267;29;19955;-63
2023/02/22 04:20:35;;;;;;;;;;;1.90;99.90;;;;;;4881364;29;19939;-64
2023/02/22 04:23:10;;;;;;;;;;;2.00;99.90;;;;;;4899582;29;20018;-64
2023/02/22 04:25:42;;;;;;;;;;;2.00;99.90;;;;;;4885713;29;19995;-64
2023/02/22 04:28:15;;;;;;;;;;;1.90;99.90;;;;;;4885552;29;19935;-64
2023/02/22 04:31:04;;;;;;;;;;;2.00;99.90;;;;;;4905362;29;19980;-64
2023/02/22 04:33:36;;;;;;;;;;;2.00;99.90;;;;;;4910378;29;19927;-64
2023/02/22 04:36:03;;;;;;;;;;;2.00;99.90;;;;;;4893895;29;19932;-64
2023/02/22 04:38:36;;;;;;;;;;;2.00;99.90;;;;;;4906867;29;19927;-64
2023/02/22 04:41:08;;;;;;;;;;;1.90;99.90;;;;;;4899998;29;19931;-63
2023/02/22 04:43:40;;;;;;;;;;;1.90;99.90;;;;;;4898255;29;20022;-64
2023/02/22 04:46:17;;;;;;;;;;;1.90;99.90;;;;;;4903728;29;19928;-64
2023/02/22 04:48:50;;;;;;;;;;;1.90;99.90;;;;;;4900754;29;20010;-64
2023/02/22 04:51:24;;;;;;;;;;;1.80;99.90;;;;;;4904419;29;19979;-64
2023/02/22 04:54:08;;;;;;;;;;;1.80;99.90;;;;;;4906511;29;20269;-64
2023/02/22 04:56:39;;;;;;;;;;;1.80;99.90;;;;;;4909639;29;20010;-64
2023/02/22 04:59:10;;;;;;;;;;;1.80;99.90;;;;;;4899324;29;19982;-64
2023/02/22 05:01:45;;;;;;;;;;;1.80;99.90;;;;;;4904333;29;19938;-64
2023/02/22 05:04:17;;;;;;;;;;;1.80;99.90;;;;;;4923992;29;19934;-64
2023/02/22 05:06:49;;;;;;;;;;;1.80;99.90;;;;;;4895306;29;19931;-64
2023/02/22 05:09:20;;;;;;;;;;;1.80;99.90;;;;;;4905166;29;19961;-64
2023/02/22 05:11:52;;;;;;;;;;;1.70;99.90;;;;;;4897243;29;19935;-64
2023/02/22 05:14:25;;;;;;;;;;;1.80;99.90;;;;;;4905390;29;19939;-64
2023/02/22 05:16:57;;;;;;;;;;;1.70;99.90;;;;;;4905432;29;19928;-64
2023/02/22 05:19:29;;;;;;;;;;;1.70;99.90;;;;;;4903436;29;19932;-64
2023/02/22 05:22:00;;;;;;;;;;;1.70;99.90;;;;;;4897988;29;19987;-64
2023/02/22 05:24:33;;;;;;;;;;;1.70;99.90;;;;;;4906248;29;19927;-64
2023/02/22 05:27:05;;;;;;;;;;;1.60;99.90;;;;;;4896647;29;20350;-64
2023/02/22 05:29:37;;;;;;;;;;;1.60;99.90;;;;;;4898991;29;19927;-64
2023/02/22 05:32:11;;;;;;;;;;;1.60;99.90;;;;;;4904070;29;19927;-64
2023/02/22 05:34:42;;;;;;;;;;;1.60;99.90;;;;;;4902112;29;19932;-64
2023/02/22 05:37:14;;;;;;;;;;;1.60;99.90;;;;;;4907984;29;19935;-64
2023/02/22 05:39:45;;;;;;;;;;;1.50;99.90;;;;;;4890743;29;19931;-65
2023/02/22 05:42:18;;;;;;;;;;;1.50;99.90;;;;;;4904099;29;19932;-64
2023/02/22 05:44:45;;;;;;;;;;;1.50;99.90;;;;;;4894110;29;20793;-64
2023/02/22 05:47:17;;;;;;;;;;;1.60;99.90;;;;;;4907396;29;20312;-64
2023/02/22 05:49:43;;;;;;;;;;;1.60;99.90;;;;;;4896646;29;19927;-63
2023/02/22 05:52:15;;;;;;;;;;;1.50;99.90;;;;;;4896289;29;19935;-64
2023/02/22 05:54:47;;;;;;;;;;;1.50;99.90;;;;;;4904826;29;19927;-64
2023/02/22 05:57:19;;;;;;;;;;;1.50;99.90;;;;;;4898509;29;19931;-64
2023/02/22 05:59:50;;;;;;;;;;;1.50;99.90;;;;;;4903199;29;19932;-64
2023/02/22 06:02:22;;;;;;;;;;;1.40;99.90;;;;;;4903476;29;19935;-64
2023/02/22 06:04:53;;;;;;;;;;;1.40;99.90;;;;;;4908538;29;19928;-63
2023/02/22 06:07:21;;;;;;;;;;;1.40;99.90;;;;;;4895553;29;19928;-63
2023/02/22 06:09:53;;;;;;;;;;;1.30;99.90;;;;;;4901670;29;19931;-64
2023/02/22 06:12:20;;;;;;;;;;;1.30;99.90;;;;;;4900611;29;19934;-63
2023/02/22 06:14:51;;;;;;;;;;;1.30;99.90;;;;;;4895752;29;19934;-64
2023/02/22 06:17:23;;;;;;;;;;;1.30;99.90;;;;;;4905105;29;19935;-64
2023/02/22 06:19:49;;;;;;;;;;;1.30;99.90;;;;;;4902102;29;19932;-64
2023/02/22 06:22:21;;;;;;;;;;;1.30;99.90;;;;;;4896526;29;19931;-63
2023/02/22 06:24:53;;;;;;;;;;;1.30;99.90;;;;;;4899865;29;20371;-64
2023/02/22 06:27:25;;;;;;;;;;;1.30;99.90;;;;;;4902982;29;19931;-64
2023/02/22 06:29:56;;;;;;;;;;;1.30;99.90;;;;;;4897217;29;19928;-63
2023/02/22 06:32:28;;;;;;;;;;;1.30;99.90;;;;;;4903350;29;20408;-63
2023/02/22 06:34:55;;;;;;;;;;;1.30;99.90;;;;;;4898766;29;20286;-64
2023/02/22 06:37:27;;;;;;;;;;;1.30;99.90;;;;;;4897235;29;20316;-63
2023/02/22 06:39:58;;;;;;;;;;;1.30;99.90;;;;;;4903870;29;19937;-63
2023/02/22 06:42:30;;;;;;;;;;;1.30;99.90;;;;;;4903151;29;19927;-63
2023/02/22 06:44:57;;;;;;;;;;;1.30;99.90;;;;;;4892864;29;20022;-64
2023/02/22 06:47:28;;;;;;;;;;;1.20;99.90;;;;;;4902357;29;20013;-63
2023/02/22 06:50:00;;;;;;;;;;;1.30;99.90;;;;;;4903161;29;19933;-63
2023/02/22 06:52:27;;;;;;;;;;;1.20;99.90;;;;;;4882463;29;19927;-63
2023/02/22 06:54:58;;;;;;;;;;;1.30;99.90;;;;;;4901803;29;19943;-63
2023/02/22 06:57:25;;;;;;;;;;;1.30;99.90;;;;;;4901266;29;19931;-63
2023/02/22 06:59:57;;;;;;;;;;;1.30;99.90;;;;;;4889312;29;19932;-63
2023/02/22 07:02:23;;;;;;;;;;;1.40;99.90;;;;;;4905623;29;19932;-64
2023/02/22 07:04:52;;;;;;;;;;;1.40;99.90;;;;;;4902820;29;22036;-63
2023/02/22 07:07:24;;;;;;;;;;;1.40;99.90;;;;;;4901609;29;19931;-64
2023/02/22 07:09:50;;;;;;;;;;;1.50;99.90;;;;;;4895678;29;19934;-63
2023/02/22 07:12:22;;;;;;;;;;;1.50;99.90;;;;;;4907441;29;19979;-63
2023/02/22 07:14:55;;;;;;;;;;;1.50;99.90;;;;;;4892009;29;19938;-63
2023/02/22 07:17:26;;;;;;;;;;;1.50;99.90;;;;;;4897854;29;19927;-63
2023/02/22 07:19:59;;;;;;;;;;;1.50;99.90;;;;;;4905879;29;19987;-63
2023/02/22 07:22:26;;;;;;;;;;;1.50;99.90;;;;;;4896553;29;20416;-63
2023/02/22 07:24:59;;;;;;;;;;;1.50;99.90;;;;;;4904357;29;19928;-63
2023/02/22 07:27:30;;;;;;;;;;;1.60;99.90;;;;;;4903536;29;19931;-63
2023/02/22 07:29:57;;;;;;;;;;;1.60;99.90;;;;;;4907226;29;19931;-63
2023/02/22 07:32:29;;;;;;;;;;;1.60;99.90;;;;;;4897945;29;19931;-63
2023/02/22 07:35:01;;;;;;;;;;;1.70;99.90;;;;;;4902424;29;19935;-63
2023/02/22 07:37:33;;;;;;;;;;;1.70;99.90;;;;;;4890360;29;19932;-63
2023/02/22 07:40:00;;;;;;;;;;;1.80;99.90;;;;;;4897712;29;19928;-63
2023/02/22 07:42:31;;;;;;;;;;;1.80;99.90;;;;;;4901476;29;19931;-63
2023/02/22 07:45:03;;;;;;;;;;;1.80;99.90;;;;;;4897155;29;20355;-63
2023/02/22 07:47:35;;;;;;;;;;;1.90;99.90;;;;;;4902117;29;19931;-63
2023/02/22 07:50:06;;;;;;;;;;;2.00;99.90;;;;;;4904937;29;19938;-63
2023/02/22 07:52:38;;;;;;;;;;;2.00;99.90;;;;;;4911534;29;20392;-64
2023/02/22 07:55:10;;;;;;;;;;;2.10;99.90;;;;;;4902665;29;19932;-63
2023/02/22 07:57:42;;;;;;;;;;;2.10;99.90;;;;;;4904931;29;19935;-62
2023/02/22 08:00:10;;;;;;;;;;;2.20;99.90;;;;;;4892880;29;19935;-63
2023/02/22 08:02:42;;;;;;;;;;;2.30;99.90;;;;;;4898403;29;19975;-63
2023/02/22 08:05:14;;;;;;;;;;;2.40;99.90;;;;;;4902384;29;19932;-64
2023/02/22 08:07:45;;;;;;;;;;;2.40;99.90;;;;;;4896984;29;19928;-63
2023/02/22 08:10:18;;;;;;;;;;;2.50;99.90;;;;;;4903504;29;19927;-64
2023/02/22 08:12:50;;;;;;;;;;;2.60;99.90;;;;;;4903917;29;19982;-64
2023/02/22 08:15:24;;;;;;;;;;;2.70;99.90;;;;;;4901635;29;20401;-64
2023/02/22 08:17:56;;;;;;;;;;;2.80;99.90;;;;;;4897026;29;19927;-63
2023/02/22 08:20:29;;;;;;;;;;;2.90;99.90;;;;;;4901542;29;19927;-63
2023/02/22 08:23:00;;;;;;;;;;;3.00;99.90;;;;;;4892660;29;19928;-63
2023/02/22 08:25:33;;;;;;;;;;;3.10;99.90;;;;;;4909359;29;19927;-64
2023/02/22 08:28:06;;;;;;;;;;;3.20;99.90;;;;;;4901535;29;19935;-63
2023/02/22 08:30:38;;;;;;;;;;;3.30;99.90;;;;;;4898036;29;19932;-64
2023/02/22 08:33:13;;;;;;;;;;;3.40;99.90;;;;;;4900604;29;20305;-64
2023/02/22 08:35:45;;;;;;;;;;;3.60;99.90;;;;;;4890059;29;19940;-63
2023/02/22 08:38:21;;;;;;;;;;;3.60;99.90;;;;;;4896088;29;20436;-63
2023/02/22 08:40:53;;;;;;;;;;;3.70;99.90;;;;;;4895203;29;19927;-64
2023/02/22 08:43:25;;;;;;;;;;;3.90;99.90;;;;;;4906445;29;19935;-64
2023/02/22 08:45:58;;;;;;;;;;;4.00;99.90;;;;;;4892615;29;20428;-64
2023/02/22 08:48:29;;;;;;;;;;;4.10;99.90;;;;;;4909833;29;20427;-64
2023/02/22 08:51:01;;;;;;;;;;;4.20;99.90;;;;;;4902274;29;19927;-64
2023/02/22 08:53:33;;;;;;;;;;;4.30;99.90;;;;;;4897653;29;19934;-64
2023/02/22 08:56:05;;;;;;;;;;;4.30;99.90;;;;;;4910499;29;19936;-64
2023/02/22 08:58:36;;;;;;;;;;;4.40;99.90;;;;;;4904402;29;19928;-64
2023/02/22 09:01:03;;;;;;;;;;;4.50;99.90;;;;;;4904267;29;19931;-64
2023/02/22 09:03:35;;;;;;;;;;;4.60;99.90;;;;;;4892153;29;19928;-64
2023/02/22 09:06:07;;;;;;;;;;;4.70;99.90;;;;;;4900403;29;19963;-63
2023/02/22 09:08:39;;;;;;;;;;;4.80;99.90;;;;;;4889660;29;19984;-64
2023/02/22 09:11:11;;;;;;;;;;;5.00;99.90;;;;;;4896374;29;19927;-64
2023/02/22 09:13:43;;;;;;;;;;;5.00;99.90;;;;;;4903369;29;19927;-64
2023/02/22 09:16:10;;;;;;;;;;;5.20;99.90;;;;;;4898034;29;19927;-64
2023/02/22 09:18:41;;;;;;;;;;;5.30;99.90;;;;;;4905595;29;19927;-64
2023/02/22 09:21:13;;;;;;;;;;;5.30;99.90;;;;;;4906289;29;19928;-64
2023/02/22 09:23:40;;;;;;;;;;;5.50;99.90;;;;;;4904789;29;19935;-64
2023/02/22 09:26:14;;;;;;;;;;;5.50;99.90;;;;;;4906282;29;19928;-64
2023/02/22 09:28:41;;;;;;;;;;;5.60;99.90;;;;;;4906416;29;19927;-64
2023/02/22 09:31:13;;;;;;;;;;;5.80;99.90;;;;;;4898061;29;19938;-64
2023/02/22 09:33:40;;;;;;;;;;;5.80;99.90;;;;;;4898967;29;19934;-64
2023/02/22 09:36:12;;;;;;;;;;;5.90;99.90;;;;;;4908599;29;19931;-64
2023/02/22 09:38:43;;;;;;;;;;;6.00;99.90;;;;;;4902737;29;19927;-64
2023/02/22 09:41:19;;;;;;;;;;;6.10;99.90;;;;;;4903904;29;20428;-64
2023/02/22 09:43:55;;;;;;;;;;;6.20;99.90;;;;;;4904780;29;19927;-64
2023/02/22 09:46:29;;;;;;;;;;;6.40;99.90;;;;;;4903276;29;19992;-64
2023/02/22 09:49:23;;;;;;;;;;;6.50;99.90;;;;;;4895621;29;20022;-64
2023/02/22 09:52:01;;;;;;;;;;;6.60;99.90;;;;;;4904717;29;19936;-64
2023/02/22 09:54:37;;;;;;;;;;;6.70;99.90;;;;;;4888259;29;19927;-64
2023/02/22 09:57:07;;;;;;;;;;;6.70;99.90;;;;;;4900186;29;20304;-64
2023/02/22 09:59:41;;;;;;;;;;;6.80;99.90;;;;;;4902422;29;19935;-64
2023/02/22 10:02:18;;;;;;;;;;;6.90;99.90;;;;;;4885956;29;19931;-64
2023/02/22 10:05:29;;;;;;;;;;;7.00;99.90;;;;;;4900379;29;19934;-63
2023/02/22 10:08:04;;;;;;;;;;;7.10;99.90;;;;;;4859212;29;19979;-64
2023/02/22 10:10:38;;;;;;;;;;;7.20;99.90;;;;;;4862748;29;20417;-64
2023/02/22 10:13:19;;;;;;;;;;;7.20;99.90;;;;;;4885595;29;20408;-64
2023/02/22 10:15:57;;;;;;;;;;;7.30;99.90;;;;;;4902521;29;20408;-64
2023/02/22 10:18:47;;;;;;;;;;;7.40;99.90;;;;;;4898967;29;19928;-63
2023/02/22 10:21:29;;;;;;;;;;;7.60;99.90;;;;;;4904407;29;19927;-64
2023/02/22 10:24:11;;;;;;;;;;;7.70;99.90;;;;;;4901366;29;19949;-64
2023/02/22 10:26:43;;;;;;;;;;;7.80;99.90;;;;;;4904120;29;19928;-65
2023/02/22 10:29:28;;;;;;;;;;;7.90;99.90;;;;;;4890827;29;20027;-64
2023/02/22 10:32:02;;;;;;;;;;;8.00;99.90;;;;;;4899935;29;19966;-64
2023/02/22 10:34:44;;;;;;;;;;;8.10;99.90;;;;;;4901341;29;20377;-64
2023/02/22 10:37:20;;;;;;;;;;;8.20;99.90;;;;;;4902997;29;19975;-64
2023/02/22 10:39:55;;;;;;;;;;;8.40;99.90;;;;;;4899163;29;19949;-64
2023/02/22 10:42:28;;;;;;;;;;;8.50;99.90;;;;;;4903132;29;20013;-64
2023/02/22 10:45:01;;;;;;;;;;;8.60;99.90;;;;;;4904283;29;19928;-64
2023/02/22 10:47:33;;;;;;;;;;;8.80;99.90;;;;;;4908179;29;19938;-64
2023/02/22 10:50:05;;;;;;;;;;;8.90;99.90;;;;;;4891338;29;19931;-63
2023/02/22 10:52:38;;;;;;;;;;;8.90;99.90;;;;;;4905281;29;20019;-64
2023/02/22 10:55:12;;;;;;;;;;;9.00;99.90;;;;;;4896984;29;19947;-64
2023/02/22 10:57:45;;;;;;;;;;;9.10;99.90;;;;;;4896767;29;19935;-64
2023/02/22 11:00:18;;;;;;;;;;;9.20;99.90;;;;;;4902849;29;20492;-64
2023/02/22 11:03:02;;;;;;;;;;;9.30;99.90;;;;;;4898460;29;19954;-64
2023/02/22 11:05:36;;;;;;;;;;;9.40;99.90;;;;;;4917213;29;19932;-64
2023/02/22 11:08:29;;;;;;;;;;;9.60;99.90;;;;;;4905693;29;19982;-64
2023/02/22 11:11:19;;;;;;;;;;;9.80;99.90;;;;;;4906088;29;20029;-64
2023/02/22 11:13:56;;;;;;;;;;;10.00;99.90;;;;;;4894895;29;19935;-64
2023/02/22 11:16:30;;;;;;;;;;;10.10;99.90;;;;;;4890947;29;20392;-64
2023/02/22 11:19:11;;;;;;;;;;;10.30;99.90;;;;;;4892331;29;19975;-64
2023/02/22 11:21:43;;;;;;;;;;;10.50;99.90;;;;;;4912416;29;19928;-64
2023/02/22 11:24:16;;;;;;;;;;;10.60;99.90;;;;;;4900420;29;19932;-64
2023/02/22 11:26:56;;;;;;;;;;;10.80;99.90;;;;;;4883071;29;20301;-63
2023/02/22 11:29:31;;;;;;;;;;;10.90;99.90;;;;;;4913253;29;19976;-64
2023/02/22 11:32:09;;;;;;;;;;;11.00;99.90;;;;;;4903890;29;20022;-64
2023/02/22 11:34:44;;;;;;;;;;;11.20;99.90;;;;;;4905145;29;19927;-64
2023/02/22 11:37:28;;;;;;;;;;;11.40;99.90;;;;;;4897587;29;19928;-64
2023/02/22 11:40:04;;;;;;;;;;;11.50;99.90;;;;;;4899554;29;20312;-64
2023/02/22 11:42:36;;;;;;;;;;;11.60;99.90;;;;;;4898191;29;19956;-64
2023/02/22 11:45:08;;;;;;;;;;;11.70;99.90;;;;;;4899874;29;19934;-64
2023/02/22 11:47:51;;;;;;;;;;;11.90;99.90;;;;;;4901145;29;19931;-64
2023/02/22 11:50:45;;;;;;;;;;;12.10;99.90;;;;;;4882335;29;19928;-64
2023/02/22 11:53:26;;;;;;;;;;;12.20;99.90;;;;;;4902334;29;19927;-64
2023/02/22 11:56:07;;;;;;;;;;;12.30;99.90;;;;;;4908142;29;20419;-64
2023/02/22 11:58:39;;;;;;;;;;;12.50;99.90;;;;;;4894209;29;19932;-64
2023/02/22 12:01:20;;;;;;;;;;;12.60;99.90;;;;;;4901318;29;19935;-64
2023/02/22 12:03:58;;;;;;;;;;;12.70;99.90;;;;;;4889585;29;20107;-64
2023/02/22 12:06:39;;;;;;;;;;;12.80;99.90;;;;;;4897075;29;19977;-65
2023/02/22 12:09:05;;;;;;;;;;;13.00;99.90;;;;;;4899748;29;20148;-64
2023/02/22 12:11:49;;;;;;;;;;;13.10;99.90;;;;;;4895568;29;19928;-64
2023/02/22 12:14:24;;;;;;;;;;;13.20;99.90;;;;;;4900712;29;19931;-64
2023/02/22 12:16:56;;;;;;;;;;;13.30;99.90;;;;;;4899691;29;19931;-64
2023/02/22 12:19:37;;;;;;;;;;;13.40;99.90;;;;;;4898776;29;19932;-64
2023/02/22 12:22:15;;;;;;;;;;;13.40;99.90;;;;;;4894651;29;19927;-64
2023/02/22 12:24:51;;;;;;;;;;;13.40;99.90;;;;;;4903563;29;19931;-64
2023/02/22 12:27:29;;;;;;;;;;;13.40;99.90;;;;;;4893573;29;19928;-64
2023/02/22 12:30:11;;;;;;;;;;;13.40;99.90;;;;;;4884663;29;19935;-64
2023/02/22 12:32:41;;;;;;;;;;;13.30;99.90;;;;;;4918876;29;20344;-64
2023/02/22 12:35:15;;;;;;;;;;;13.30;99.90;;;;;;4895786;29;19927;-64
2023/02/22 12:37:51;;;;;;;;;;;13.30;99.90;;;;;;4888003;29;19938;-64
2023/02/22 12:40:28;;;;;;;;;;;13.30;99.90;;;;;;4897477;29;19927;-64
2023/02/22 12:43:06;;;;;;;;;;;13.40;99.90;;;;;;4897480;29;19931;-64
2023/02/22 12:45:47;;;;;;;;;;;13.40;99.90;;;;;;4897847;29;19931;-64
2023/02/22 12:48:38;;;;;;;;;;;13.40;99.90;;;;;;4901691;29;19931;-64
2023/02/22 12:51:16;;;;;;;;;;;13.30;99.90;;;;;;4878681;29;19951;-64
2023/02/22 12:54:10;;;;;;;;;;;13.40;99.90;;;;;;4911705;29;19927;-64
2023/02/22 12:56:46;;;;;;;;;;;13.40;99.90;;;;;;4897010;29;19939;-64
2023/02/22 12:59:21;;;;;;;;;;;13.50;99.90;;;;;;4900256;29;19931;-64
2023/02/22 13:01:53;;;;;;;;;;;13.50;99.90;;;;;;4921010;29;19931;-64
2023/02/22 13:04:25;;;;;;;;;;;13.60;99.90;;;;;;4905243;29;19995;-64
2023/02/22 13:07:12;;;;;;;;;;;13.70;99.90;;;;;;4903553;29;19928;-64
2023/02/22 13:09:48;;;;;;;;;;;13.90;99.90;;;;;;4908841;29;19932;-64
2023/02/22 13:12:23;;;;;;;;;;;13.90;99.90;;;;;;4898009;29;20436;-64
2023/02/22 13:15:09;;;;;;;;;;;14.10;99.90;;;;;;4898568;29;19987;-66
2023/02/22 13:17:48;;;;;;;;;;;14.10;99.90;;;;;;4898014;29;19979;-64
2023/02/22 13:20:23;;;;;;;;;;;14.20;99.90;;;;;;4901555;29;19931;-64
2023/02/22 13:23:01;;;;;;;;;;;14.10;99.90;;;;;;4898949;29;20389;-64
2023/02/22 13:25:32;;;;;;;;;;;14.10;99.90;;;;;;4905522;29;19928;-64
2023/02/22 13:28:23;;;;;;;;;;;14.00;99.90;;;;;;4889595;29;19950;-64
2023/02/22 13:31:07;;;;;;;;;;;14.00;99.90;;;;;;4898230;29;20573;-64
2023/02/22 13:34:05;;;;;;;;;;;13.90;99.90;;;;;;4903488;29;19931;-64
2023/02/22 13:36:46;;;;;;;;;;;13.90;99.90;;;;;;4899600;29;19939;-64
2023/02/22 13:39:38;;;;;;;;;;;14.00;99.90;;;;;;4905456;29;19927;-64
2023/02/22 13:42:09;;;;;;;;;;;13.90;99.90;;;;;;4904869;29;19935;-64
2023/02/22 13:45:02;;;;;;;;;;;13.90;99.90;;;;;;4903024;29;20453;-64
2023/02/22 13:47:57;;;;;;;;;;;13.90;99.90;;;;;;4904610;29;20410;-64
2023/02/22 13:50:47;;;;;;;;;;;13.90;99.90;;;;;;4907616;29;19935;-64
2023/02/22 13:53:23;;;;;;;;;;;13.90;99.90;;;;;;4899032;29;20397;-64
2023/02/22 13:55:57;;;;;;;;;;;13.90;99.90;;;;;;4905282;29;19938;-64
2023/02/22 13:58:29;;;;;;;;;;;13.90;99.90;;;;;;4899361;29;19931;-64
2023/02/22 14:01:00;;;;;;;;;;;13.90;99.90;;;;;;4898293;29;19935;-64
2023/02/22 14:03:35;;;;;;;;;;;13.90;99.90;;;;;;4903037;29;19927;-64
2023/02/22 14:06:27;;;;;;;;;;;14.00;99.90;;;;;;4907501;29;20395;-64
2023/02/22 14:08:58;;;;;;;;;;;14.10;99.90;;;;;;4899356;29;20270;-64
2023/02/22 14:11:30;;;;;;;;;;;14.20;99.90;;;;;;4906019;29;19931;-64
2023/02/22 14:14:01;;;;;;;;;;;14.30;99.90;;;;;;4896072;29;19956;-64
2023/02/22 14:16:34;;;;;;;;;;;14.40;99.90;;;;;;4899157;29;19927;-64
2023/02/22 14:19:05;;;;;;;;;;;14.40;99.90;;;;;;4904163;29;19938;-64
2023/02/22 14:21:35;;;;;;;;;;;14.40;99.90;;;;;;4899139;29;19927;-64
2023/02/22 14:24:12;;;;;;;;;;;14.40;99.90;;;;;;4900050;29;19939;-63
2023/02/22 14:27:03;;;;;;;;;;;14.40;99.90;;;;;;4907464;29;19928;-64
2023/02/22 14:29:35;;;;;;;;;;;14.40;99.90;;;;;;4898747;29;20338;-64
2023/02/22 14:32:13;;;;;;;;;;;14.40;99.90;;;;;;4895742;29;19927;-64
2023/02/22 14:34:52;;;;;;;;;;;14.40;99.90;;;;;;4907476;29;20253;-64
2023/02/22 14:37:29;;;;;;;;;;;14.30;99.90;;;;;;4895658;29;19928;-64
2023/02/22 14:40:14;;;;;;;;;;;14.30;99.90;;;;;;4900596;29;19927;-64
2023/02/22 14:42:50;;;;;;;;;;;14.30;99.90;;;;;;4901378;29;19953;-64
2023/02/22 14:45:23;;;;;;;;;;;14.30;99.90;;;;;;4911863;29;19928;-64
2023/02/22 14:48:14;;;;;;;;;;;14.20;99.90;;;;;;4906998;29;20460;-64
2023/02/22 14:50:54;;;;;;;;;;;14.20;99.90;;;;;;4903831;29;19953;-64
2023/02/22 14:53:37;;;;;;;;;;;14.20;99.90;;;;;;4900064;29;20002;-64
2023/02/22 14:56:14;;;;;;;;;;;14.10;99.90;;;;;;4902108;29;19927;-64
2023/02/22 14:58:48;;;;;;;;;;;14.10;99.90;;;;;;4902871;29;19931;-64
2023/02/22 15:01:32;;;;;;;;;;;14.10;99.90;;;;;;4893047;29;20405;-64
2023/02/22 15:04:21;;;;;;;;;;;14.10;99.90;;;;;;4903550;29;20336;-64
2023/02/22 15:06:48;;;;;;;;;;;14.00;99.90;;;;;;4924423;29;20021;-64
2023/02/22 15:09:24;;;;;;;;;;;14.00;99.90;;;;;;4900189;29;19938;-64